Time;durP1;ratioP1;P1;durP2;ratioP2;P2;SDS_P1;SDS_P2;PMS_P1;PMS_P2;Temp;Humidity;BMP_temperature;BMP_pressure;BME280_temperature;BME280_humidity;BME280_pressure;Samples;Min_cycle;Max_cycle;Signal;HPM_P1;HPM_P2
2023/09/27 00:02:10;;;;;;;27.35;13.10;;;;;;;;;;6257329;28;20303;-70
2023/09/27 00:05:16;;;;;;;24.38;12.00;;;;;;;;;;6257030;28;20303;-72
2023/09/27 00:08:20;;;;;;;27.02;13.18;;;;;;;;;;6272340;28;20307;-73
2023/09/27 00:11:25;;;;;;;27.65;12.75;;;;;;;;;;6250404;28;20470;-71
2023/09/27 00:14:29;;;;;;;25.23;12.82;;;;;;;;;;6272293;28;20327;-69
2023/09/27 00:17:34;;;;;;;23.70;11.82;;;;;;;;;;6257550;28;20303;-70
2023/09/27 00:20:38;;;;;;;29.42;12.43;;;;;;;;;;6256387;28;20303;-69
2023/09/27 00:23:42;;;;;;;24.90;12.18;;;;;;;;;;6257081;28;20303;-70
2023/09/27 00:26:46;;;;;;;27.83;12.20;;;;;;;;;;6256676;28;20303;-69
2023/09/27 00:29:51;;;;;;;26.25;12.45;;;;;;;;;;6256894;28;20320;-70
2023/09/27 00:32:56;;;;;;;37.72;12.60;;;;;;;;;;6271735;28;20295;-70
2023/09/27 00:36:02;;;;;;;37.92;11.98;;;;;;;;;;6256701;28;20312;-70
2023/09/27 00:39:06;;;;;;;38.58;12.02;;;;;;;;;;6269985;28;20304;-70
2023/09/27 00:42:10;;;;;;;38.45;11.00;;;;;;;;;;6234674;28;20304;-70
2023/09/27 00:45:13;;;;;;;45.67;11.65;;;;;;;;;;6274639;28;20298;-71
2023/09/27 00:48:19;;;;;;;29.55;12.30;;;;;;;;;;6281862;28;20571;-70
2023/09/27 00:51:24;;;;;;;31.38;11.68;;;;;;;;;;6296155;28;20757;-70
2023/09/27 00:54:28;;;;;;;29.42;11.45;;;;;;;;;;6281166;28;20295;-70
2023/09/27 00:57:32;;;;;;;40.97;12.63;;;;;;;;;;6281351;28;20298;-70
2023/09/27 01:00:37;;;;;;;31.27;11.63;;;;;;;;;;6280400;28;20307;-70
2023/09/27 01:03:42;;;;;;;33.83;11.82;;;;;;;;;;6281547;28;20343;-70
2023/09/27 01:06:49;;;;;;;36.80;11.15;;;;;;;;;;6278909;28;20287;-70
2023/09/27 01:09:52;;;;;;;29.02;11.00;;;;;;;;;;6280930;28;20294;-71
2023/09/27 01:12:57;;;;;;;29.25;11.57;;;;;;;;;;6281978;28;20287;-70
2023/09/27 01:16:04;;;;;;;27.77;11.18;;;;;;;;;;6283963;28;20302;-70
2023/09/27 01:19:09;;;;;;;26.20;11.65;;;;;;;;;;6300894;28;20298;-71
2023/09/27 01:22:14;;;;;;;24.40;10.65;;;;;;;;;;6284411;28;20374;-70
2023/09/27 01:25:22;;;;;;;27.90;11.35;;;;;;;;;;6300812;28;20300;-70
2023/09/27 01:28:26;;;;;;;25.25;11.77;;;;;;;;;;6286007;28;20306;-70
2023/09/27 01:31:30;;;;;;;26.17;10.77;;;;;;;;;;6300124;28;20378;-72
2023/09/27 01:34:33;;;;;;;25.85;10.95;;;;;;;;;;6285456;28;20299;-71
2023/09/27 01:37:38;;;;;;;28.25;11.27;;;;;;;;;;6286081;28;20306;-69
2023/09/27 01:40:44;;;;;;;28.88;11.00;;;;;;;;;;6276704;28;20304;-70
2023/09/27 01:43:48;;;;;;;26.27;10.80;;;;;;;;;;6251008;28;20292;-71
2023/09/27 01:46:52;;;;;;;33.30;11.48;;;;;;;;;;6268102;28;20585;-70
2023/09/27 01:49:56;;;;;;;22.33;10.80;;;;;;;;;;6235863;28;20300;-70
2023/09/27 01:53:03;;;;;;;20.20;10.23;;;;;;;;;;6251125;28;20296;-72
2023/09/27 01:56:08;;;;;;;33.70;11.45;;;;;;;;;;6235974;28;20288;-70
2023/09/27 01:59:12;;;;;;;26.40;11.40;;;;;;;;;;6235235;28;20308;-70
2023/09/27 02:02:16;;;;;;;43.72;11.90;;;;;;;;;;6268059;28;20300;-71
2023/09/27 02:05:20;;;;;;;34.95;11.35;;;;;;;;;;6235531;28;20299;-71
2023/09/27 02:08:23;;;;;;;31.98;10.95;;;;;;;;;;6235799;28;20364;-70
2023/09/27 02:11:29;;;;;;;61.15;12.20;;;;;;;;;;6245364;28;20599;-69
2023/09/27 02:14:33;;;;;;;20.02;10.60;;;;;;;;;;6260214;28;20303;-71
2023/09/27 02:17:37;;;;;;;18.55;10.27;;;;;;;;;;6275385;28;20299;-70
2023/09/27 02:20:41;;;;;;;17.90;10.48;;;;;;;;;;6256161;28;20307;-72
2023/09/27 02:23:45;;;;;;;16.77;9.85;;;;;;;;;;6258563;28;20324;-70
2023/09/27 02:26:50;;;;;;;17.75;9.82;;;;;;;;;;6274186;28;20303;-70
2023/09/27 02:29:54;;;;;;;16.63;9.73;;;;;;;;;;6260112;28;20506;-71
2023/09/27 02:32:58;;;;;;;24.15;9.38;;;;;;;;;;6259589;28;20607;-71
2023/09/27 02:36:02;;;;;;;14.93;8.75;;;;;;;;;;6292391;28;20302;-72
2023/09/27 02:39:05;;;;;;;14.82;8.82;;;;;;;;;;6281611;28;20303;-70
2023/09/27 02:42:12;;;;;;;15.27;8.50;;;;;;;;;;6259736;28;20300;-69
2023/09/27 02:45:16;;;;;;;13.10;7.93;;;;;;;;;;6257625;28;20395;-69
2023/09/27 02:48:20;;;;;;;13.93;8.45;;;;;;;;;;6274915;28;20292;-69
2023/09/27 02:51:24;;;;;;;10.43;7.65;;;;;;;;;;6236391;28;20296;-69
2023/09/27 02:54:28;;;;;;;14.95;8.73;;;;;;;;;;6272378;28;20334;-69
2023/09/27 02:57:33;;;;;;;13.43;8.25;;;;;;;;;;6259038;28;20292;-69
2023/09/27 03:00:37;;;;;;;17.38;9.80;;;;;;;;;;6257751;28;20331;-71
2023/09/27 03:03:41;;;;;;;20.92;10.73;;;;;;;;;;6265916;28;20291;-70
2023/09/27 03:06:48;;;;;;;17.17;10.35;;;;;;;;;;6259022;28;20553;-71
2023/09/27 03:09:53;;;;;;;17.65;10.15;;;;;;;;;;6273483;28;20304;-71
2023/09/27 03:12:58;;;;;;;17.83;11.40;;;;;;;;;;6273285;28;20279;-70
2023/09/27 03:16:04;;;;;;;22.33;12.43;;;;;;;;;;6274100;28;20291;-72
2023/09/27 03:19:08;;;;;;;22.88;12.75;;;;;;;;;;6257968;28;20323;-69
2023/09/27 03:22:13;;;;;;;21.08;11.50;;;;;;;;;;6258390;28;20300;-70
2023/09/27 03:25:17;;;;;;;19.08;11.57;;;;;;;;;;6258083;28;20299;-71
2023/09/27 03:28:23;;;;;;;16.10;11.52;;;;;;;;;;6258162;28;20291;-72
2023/09/27 03:31:27;;;;;;;17.20;11.38;;;;;;;;;;6273194;28;20311;-70
2023/09/27 03:34:32;;;;;;;20.73;12.45;;;;;;;;;;6273739;28;20304;-72
2023/09/27 03:37:35;;;;;;;18.90;11.85;;;;;;;;;;6258806;28;20291;-70
2023/09/27 03:40:40;;;;;;;18.58;11.45;;;;;;;;;;6254110;28;20300;-70
2023/09/27 03:43:46;;;;;;;17.13;11.43;;;;;;;;;;6272471;28;20292;-70
2023/09/27 03:46:50;;;;;;;17.85;11.35;;;;;;;;;;6258046;28;20600;-70
2023/09/27 03:49:54;;;;;;;16.80;11.02;;;;;;;;;;6239199;28;20305;-70
2023/09/27 03:53:02;;;;;;;17.25;11.13;;;;;;;;;;6248400;28;20296;-71
2023/09/27 03:56:06;;;;;;;18.90;11.50;;;;;;;;;;6231857;28;20312;-71
2023/09/27 03:59:13;;;;;;;17.88;11.65;;;;;;;;;;6248241;28;20300;-71
2023/09/27 04:02:17;;;;;;;20.58;11.73;;;;;;;;;;6248343;28;20331;-71
2023/09/27 04:05:25;;;;;;;17.48;11.63;;;;;;;;;;6248209;28;20288;-70
2023/09/27 04:08:29;;;;;;;17.40;11.25;;;;;;;;;;6247808;28;20292;-71
2023/09/27 04:11:33;;;;;;;16.38;12.18;;;;;;;;;;6265476;28;20295;-70
2023/09/27 04:14:38;;;;;;;15.80;11.68;;;;;;;;;;6281788;28;20346;-71
2023/09/27 04:17:42;;;;;;;15.70;10.95;;;;;;;;;;6282018;28;20465;-70
2023/09/27 04:20:46;;;;;;;16.58;10.32;;;;;;;;;;6282090;28;20302;-70
2023/09/27 04:23:54;;;;;;;16.55;11.25;;;;;;;;;;6281432;28;20294;-70
2023/09/27 04:26:58;;;;;;;16.02;9.57;;;;;;;;;;6282093;28;20488;-70
2023/09/27 04:30:06;;;;;;;19.58;10.55;;;;;;;;;;6281564;28;20298;-70
2023/09/27 04:33:10;;;;;;;18.13;10.18;;;;;;;;;;6281147;28;20708;-70
2023/09/27 04:36:17;;;;;;;16.25;10.40;;;;;;;;;;6281737;28;20306;-71
2023/09/27 04:39:21;;;;;;;17.00;10.80;;;;;;;;;;6276732;28;20294;-72
2023/09/27 04:42:25;;;;;;;18.85;10.73;;;;;;;;;;6257074;28;20295;-70
2023/09/27 04:45:30;;;;;;;19.60;11.70;;;;;;;;;;6256347;28;20290;-70
2023/09/27 04:48:34;;;;;;;23.25;11.07;;;;;;;;;;6258284;28;20327;-70
2023/09/27 04:51:38;;;;;;;21.65;11.57;;;;;;;;;;6261797;28;20271;-70
2023/09/27 04:54:42;;;;;;;22.27;11.77;;;;;;;;;;6261347;28;20315;-70
2023/09/27 04:57:46;;;;;;;21.83;12.40;;;;;;;;;;6261538;28;20332;-71
2023/09/27 05:00:51;;;;;;;24.08;11.52;;;;;;;;;;6261943;28;20247;-71
2023/09/27 05:03:55;;;;;;;22.75;11.55;;;;;;;;;;6261325;28;20303;-71
2023/09/27 05:06:59;;;;;;;17.35;11.02;;;;;;;;;;6261630;28;20331;-70
2023/09/27 05:10:04;;;;;;;19.55;11.88;;;;;;;;;;6261043;28;20604;-69
2023/09/27 05:13:07;;;;;;;19.52;11.45;;;;;;;;;;6261106;28;20362;-70
2023/09/27 05:16:12;;;;;;;17.33;11.02;;;;;;;;;;6261257;28;20295;-69
2023/09/27 05:19:17;;;;;;;16.45;10.85;;;;;;;;;;6261098;28;20292;-70
2023/09/27 05:22:21;;;;;;;18.25;11.00;;;;;;;;;;6261060;28;20299;-69
2023/09/27 05:25:25;;;;;;;17.33;11.38;;;;;;;;;;6260662;28;20323;-71
2023/09/27 05:28:29;;;;;;;20.58;11.93;;;;;;;;;;6258552;28;20319;-71
2023/09/27 05:31:34;;;;;;;16.52;11.07;;;;;;;;;;6260328;28;20330;-71
2023/09/27 05:34:38;;;;;;;18.17;11.27;;;;;;;;;;6260223;28;20295;-70
2023/09/27 05:37:43;;;;;;;20.55;11.35;;;;;;;;;;6260458;28;20488;-69
2023/09/27 05:40:46;;;;;;;15.77;10.75;;;;;;;;;;6258880;28;20299;-68
2023/09/27 05:43:50;;;;;;;16.05;11.35;;;;;;;;;;6260214;28;20287;-71
2023/09/27 05:46:56;;;;;;;15.68;11.27;;;;;;;;;;6260827;28;20311;-70
2023/09/27 05:50:00;;;;;;;15.98;10.88;;;;;;;;;;6260066;28;20303;-69
2023/09/27 05:53:05;;;;;;;15.68;10.57;;;;;;;;;;6260067;28;20627;-71
2023/09/27 05:56:09;;;;;;;15.68;10.48;;;;;;;;;;6260242;28;20284;-70
2023/09/27 05:59:14;;;;;;;18.83;11.02;;;;;;;;;;6259574;28;20303;-70
2023/09/27 06:02:20;;;;;;;18.23;11.50;;;;;;;;;;6260271;28;20312;-72
2023/09/27 06:05:24;;;;;;;15.73;10.77;;;;;;;;;;6259796;28;20300;-71
2023/09/27 06:08:28;;;;;;;16.17;11.80;;;;;;;;;;6259684;28;20292;-70
2023/09/27 06:11:32;;;;;;;16.17;10.48;;;;;;;;;;6258707;28;20585;-70
2023/09/27 06:14:36;;;;;;;17.85;11.20;;;;;;;;;;6235554;28;20284;-70
2023/09/27 06:17:42;;;;;;;15.90;10.63;;;;;;;;;;6235550;28;20291;-72
2023/09/27 06:20:47;;;;;;;13.43;10.32;;;;;;;;;;6235885;28;20320;-69
2023/09/27 06:23:51;;;;;;;17.60;10.35;;;;;;;;;;6234906;28;20295;-69
2023/09/27 06:26:55;;;;;;;15.07;10.57;;;;;;;;;;6234956;28;20280;-69
2023/09/27 06:29:58;;;;;;;14.85;10.85;;;;;;;;;;6250016;28;20298;-70
2023/09/27 06:33:04;;;;;;;13.43;11.10;;;;;;;;;;6234265;28;20308;-70
2023/09/27 06:36:08;;;;;;;19.20;11.68;;;;;;;;;;6234963;28;20617;-71
2023/09/27 06:39:13;;;;;;;14.43;11.02;;;;;;;;;;6234069;28;20352;-71
2023/09/27 06:42:19;;;;;;;16.80;10.57;;;;;;;;;;6259517;28;20299;-69
2023/09/27 06:45:23;;;;;;;15.05;10.30;;;;;;;;;;6258790;28;20593;-70
2023/09/27 06:48:28;;;;;;;14.77;10.48;;;;;;;;;;6258773;28;20304;-70
2023/09/27 06:51:33;;;;;;;14.07;9.98;;;;;;;;;;6259289;28;20595;-71
2023/09/27 06:54:37;;;;;;;16.75;11.43;;;;;;;;;;6257836;28;20299;-69
2023/09/27 06:57:41;;;;;;;20.42;11.48;;;;;;;;;;6258451;28;20268;-70
2023/09/27 07:00:45;;;;;;;21.98;13.32;;;;;;;;;;6259083;28;20260;-71
2023/09/27 07:03:50;;;;;;;18.10;11.98;;;;;;;;;;6258252;28;20291;-71
2023/09/27 07:06:55;;;;;;;18.33;11.73;;;;;;;;;;6259077;28;20304;-70
2023/09/27 07:09:58;;;;;;;17.70;11.05;;;;;;;;;;6258161;28;20300;-71
2023/09/27 07:13:02;;;;;;;17.42;12.10;;;;;;;;;;6258063;28;20291;-70
2023/09/27 07:16:20;;;;;;;13.73;10.73;;;;;;;;;;6258854;28;20311;-70
2023/09/27 07:19:26;;;;;;;24.75;11.93;;;;;;;;;;6258455;28;20296;-71
2023/09/27 07:22:31;;;;;;;17.05;10.38;;;;;;;;;;6258673;28;20295;-70
2023/09/27 07:25:37;;;;;;;19.45;10.80;;;;;;;;;;6258101;28;20296;-69
2023/09/27 07:28:42;;;;;;;17.85;11.18;;;;;;;;;;6258156;28;20287;-70
2023/09/27 07:31:46;;;;;;;17.13;10.90;;;;;;;;;;6258191;28;20319;-70
2023/09/27 07:34:53;;;;;;;18.10;10.98;;;;;;;;;;6257969;28;20299;-70
2023/09/27 07:37:58;;;;;;;17.50;11.98;;;;;;;;;;6257412;28;20299;-70
2023/09/27 07:41:01;;;;;;;23.48;11.35;;;;;;;;;;6256000;28;20616;-70
2023/09/27 07:44:07;;;;;;;16.25;10.85;;;;;;;;;;6221752;28;20301;-70
2023/09/27 07:47:11;;;;;;;22.95;10.13;;;;;;;;;;6209422;28;20329;-70
2023/09/27 07:50:16;;;;;;;20.55;10.40;;;;;;;;;;6229750;28;20300;-70
2023/09/27 07:53:20;;;;;;;17.98;10.23;;;;;;;;;;6227911;28;20300;-71
2023/09/27 07:56:26;;;;;;;16.52;10.30;;;;;;;;;;6209723;28;20301;-71
2023/09/27 07:59:31;;;;;;;17.10;9.88;;;;;;;;;;6224800;28;20324;-70
2023/09/27 08:02:34;;;;;;;12.43;8.93;;;;;;;;;;6233259;28;20296;-71
2023/09/27 08:05:43;;;;;;;11.00;8.80;;;;;;;;;;6208723;28;20308;-71
2023/09/27 08:08:47;;;;;;;13.88;9.57;;;;;;;;;;6232693;28;20558;-70
2023/09/27 08:11:51;;;;;;;14.35;9.05;;;;;;;;;;6252856;28;20307;-70
2023/09/27 08:14:56;;;;;;;10.88;9.05;;;;;;;;;;6257603;28;20304;-70
2023/09/27 08:18:00;;;;;;;14.57;9.85;;;;;;;;;;6257386;28;20417;-70
2023/09/27 08:21:05;;;;;;;19.45;9.18;;;;;;;;;;6257533;28;20304;-71
2023/09/27 08:24:09;;;;;;;9.88;8.05;;;;;;;;;;6257398;28;20323;-68
2023/09/27 08:27:13;;;;;;;12.27;8.25;;;;;;;;;;6258060;28;20296;-69
2023/09/27 08:30:17;;;;;;;9.77;8.23;;;;;;;;;;6257122;28;20296;-71
2023/09/27 08:33:21;;;;;;;9.30;8.00;;;;;;;;;;6256684;28;20304;-71
2023/09/27 08:36:26;;;;;;;11.88;8.57;;;;;;;;;;6257714;28;20304;-70
2023/09/27 08:39:30;;;;;;;10.20;8.20;;;;;;;;;;6253137;28;20480;-70
2023/09/27 08:42:35;;;;;;;10.00;8.05;;;;;;;;;;6257186;28;20493;-70
2023/09/27 08:45:39;;;;;;;9.13;8.15;;;;;;;;;;6255886;28;20334;-70
2023/09/27 08:48:42;;;;;;;9.95;8.65;;;;;;;;;;6256582;28;20303;-71
2023/09/27 08:51:48;;;;;;;13.02;8.25;;;;;;;;;;6257151;28;20548;-70
2023/09/27 08:54:52;;;;;;;15.32;9.93;;;;;;;;;;6256762;28;20303;-70
2023/09/27 08:57:57;;;;;;;11.20;9.50;;;;;;;;;;6256343;28;20291;-73
2023/09/27 09:01:01;;;;;;;13.55;9.25;;;;;;;;;;6257078;28;20291;-69
2023/09/27 09:04:06;;;;;;;10.30;9.13;;;;;;;;;;6247621;28;20315;-69
2023/09/27 09:07:12;;;;;;;12.13;9.18;;;;;;;;;;6257275;28;20312;-69
2023/09/27 09:10:16;;;;;;;13.13;9.13;;;;;;;;;;6256290;28;20331;-70
2023/09/27 09:13:22;;;;;;;15.35;8.85;;;;;;;;;;6256389;28;20295;-70
2023/09/27 09:16:26;;;;;;;10.38;9.15;;;;;;;;;;6256822;28;20299;-69
2023/09/27 09:19:31;;;;;;;13.30;9.18;;;;;;;;;;6256263;28;20291;-72
2023/09/27 09:22:50;;;;;;;11.55;8.82;;;;;;;;;;6256381;28;20304;-70
2023/09/27 09:25:56;;;;;;;10.27;8.70;;;;;;;;;;6256625;28;20292;-70
2023/09/27 09:29:00;;;;;;;10.73;7.80;;;;;;;;;;6256190;28;20308;-70
2023/09/27 09:32:08;;;;;;;9.77;7.63;;;;;;;;;;6256357;28;20599;-71
2023/09/27 09:35:12;;;;;;;14.00;8.38;;;;;;;;;;6258723;28;20334;-70
2023/09/27 09:38:26;;;;;;;9.95;7.65;;;;;;;;;;6260633;28;20307;-72
2023/09/27 09:41:44;;;;;;;8.75;7.85;;;;;;;;;;6259094;28;20387;-71
2023/09/27 09:44:59;;;;;;;11.43;8.23;;;;;;;;;;6260650;28;20355;-70
2023/09/27 09:48:05;;;;;;;13.77;7.25;;;;;;;;;;6260540;28;20288;-70
2023/09/27 09:51:11;;;;;;;11.98;7.97;;;;;;;;;;6260960;28;20295;-71
2023/09/27 09:54:28;;;;;;;9.35;7.03;;;;;;;;;;6260518;28;20300;-71
2023/09/27 09:57:35;;;;;;;10.00;7.45;;;;;;;;;;6260806;28;20523;-70
2023/09/27 10:00:57;;;;;;;10.18;7.53;;;;;;;;;;6259567;28;20390;-70
2023/09/27 10:04:04;;;;;;;8.57;7.32;;;;;;;;;;6260233;28;20325;-71
2023/09/27 10:07:08;;;;;;;15.52;7.93;;;;;;;;;;6260312;28;20299;-70
2023/09/27 10:10:14;;;;;;;8.15;7.45;;;;;;;;;;6259905;28;20299;-69
2023/09/27 10:13:18;;;;;;;10.23;7.50;;;;;;;;;;6259810;28;20295;-70
2023/09/27 10:16:24;;;;;;;8.25;7.50;;;;;;;;;;6260311;28;20398;-70
2023/09/27 10:19:29;;;;;;;13.65;7.57;;;;;;;;;;6259617;28;20292;-71
2023/09/27 10:22:33;;;;;;;8.63;7.72;;;;;;;;;;6260149;28;20300;-71
2023/09/27 10:25:38;;;;;;;12.88;7.63;;;;;;;;;;6259558;28;20450;-69
2023/09/27 10:29:10;;;;;;;9.05;7.75;;;;;;;;;;6259435;28;20640;-71
2023/09/27 10:32:17;;;;;;;10.60;7.55;;;;;;;;;;6259366;28;20339;-70
2023/09/27 10:35:22;;;;;;;9.13;7.82;;;;;;;;;;6259580;28;20288;-71
2023/09/27 10:38:25;;;;;;;8.25;7.53;;;;;;;;;;6259510;28;20292;-69
2023/09/27 10:41:48;;;;;;;8.35;7.55;;;;;;;;;;6257692;28;20288;-70
2023/09/27 10:44:53;;;;;;;15.05;8.20;;;;;;;;;;6259206;28;20608;-69
2023/09/27 10:48:15;;;;;;;12.82;7.32;;;;;;;;;;6258662;28;20291;-69
2023/09/27 10:51:19;;;;;;;8.20;7.53;;;;;;;;;;6259742;28;20312;-70
2023/09/27 10:54:23;;;;;;;11.55;7.60;;;;;;;;;;6259022;28;20327;-71
2023/09/27 10:57:29;;;;;;;10.68;7.78;;;;;;;;;;6259164;28;20299;-72
2023/09/27 11:00:33;;;;;;;8.43;7.38;;;;;;;;;;6258927;28;20592;-70
2023/09/27 11:03:37;;;;;;;9.00;7.38;;;;;;;;;;6258475;28;20291;-70
2023/09/27 11:06:45;;;;;;;11.27;7.60;;;;;;;;;;6259279;28;20249;-71
2023/09/27 11:09:51;;;;;;;7.32;6.57;;;;;;;;;;6258667;28;20295;-70
2023/09/27 11:13:11;;;;;;;8.75;6.78;;;;;;;;;;6258740;28;20433;-70
2023/09/27 11:16:18;;;;;;;8.25;6.70;;;;;;;;;;6259251;28;20499;-70
2023/09/27 11:19:29;;;;;;;9.05;6.85;;;;;;;;;;6258653;28;20299;-71
2023/09/27 11:22:33;;;;;;;7.35;6.70;;;;;;;;;;6258604;28;20292;-70
2023/09/27 11:25:37;;;;;;;12.15;5.70;;;;;;;;;;6256674;28;20307;-71
2023/09/27 11:28:43;;;;;;;6.18;5.60;;;;;;;;;;6258174;28;20291;-71
2023/09/27 11:31:55;;;;;;;5.90;5.07;;;;;;;;;;6258473;28;20480;-70
2023/09/27 11:34:59;;;;;;;10.15;5.80;;;;;;;;;;6258136;28;20288;-71
2023/09/27 11:38:10;;;;;;;9.23;5.70;;;;;;;;;;6258160;28;20291;-70
2023/09/27 11:41:16;;;;;;;6.18;5.68;;;;;;;;;;6256587;28;20291;-70
2023/09/27 11:44:23;;;;;;;13.50;6.22;;;;;;;;;;6257642;28;20299;-69
2023/09/27 11:47:27;;;;;;;6.90;5.93;;;;;;;;;;6258189;28;20307;-70
2023/09/27 11:50:31;;;;;;;8.70;5.50;;;;;;;;;;6257617;28;20315;-70
2023/09/27 11:53:36;;;;;;;12.43;5.63;;;;;;;;;;6257646;28;20454;-71
2023/09/27 11:56:40;;;;;;;10.23;5.93;;;;;;;;;;6257713;28;20287;-70
2023/09/27 11:59:46;;;;;;;7.85;6.00;;;;;;;;;;6257396;28;20355;-71
2023/09/27 12:02:51;;;;;;;6.35;5.85;;;;;;;;;;6257285;28;20592;-71
2023/09/27 12:06:00;;;;;;;8.10;5.35;;;;;;;;;;6257811;28;20292;-71
2023/09/27 12:09:05;;;;;;;7.47;5.55;;;;;;;;;;6257414;28;20315;-70
2023/09/27 12:12:09;;;;;;;14.93;5.78;;;;;;;;;;6257703;28;20467;-71
2023/09/27 12:15:15;;;;;;;8.35;5.72;;;;;;;;;;6257184;28;20311;-70
2023/09/27 12:18:20;;;;;;;6.88;5.80;;;;;;;;;;6257110;28;20578;-71
2023/09/27 12:21:24;;;;;;;7.43;5.32;;;;;;;;;;6257386;28;20331;-70
2023/09/27 12:24:28;;;;;;;9.32;5.55;;;;;;;;;;6257183;28;20395;-70
2023/09/27 12:27:32;;;;;;;6.82;6.10;;;;;;;;;;6257414;28;20687;-70
2023/09/27 12:30:37;;;;;;;8.05;5.90;;;;;;;;;;6232657;28;20296;-69
2023/09/27 12:33:41;;;;;;;7.07;6.22;;;;;;;;;;6249339;28;20496;-70
2023/09/27 12:36:45;;;;;;;6.20;5.53;;;;;;;;;;6257959;28;20253;-70
2023/09/27 12:39:48;;;;;;;6.95;6.28;;;;;;;;;;6255023;28;20295;-72
2023/09/27 12:42:52;;;;;;;6.45;6.05;;;;;;;;;;6256730;28;20248;-71
2023/09/27 12:45:57;;;;;;;11.20;7.28;;;;;;;;;;6257389;28;20478;-70
2023/09/27 12:49:01;;;;;;;12.10;6.88;;;;;;;;;;6256979;28;20620;-72
2023/09/27 12:52:07;;;;;;;11.80;7.43;;;;;;;;;;6257220;28;20599;-70
2023/09/27 12:55:11;;;;;;;8.63;7.25;;;;;;;;;;6257105;28;20291;-70
2023/09/27 12:58:15;;;;;;;14.05;7.88;;;;;;;;;;6257417;28;20287;-71
2023/09/27 13:01:20;;;;;;;9.32;7.30;;;;;;;;;;6257278;28;20299;-71
2023/09/27 13:04:24;;;;;;;8.70;7.80;;;;;;;;;;6271862;28;20439;-71
2023/09/27 13:07:29;;;;;;;8.02;7.25;;;;;;;;;;6257055;28;20296;-72
2023/09/27 13:10:34;;;;;;;7.45;6.95;;;;;;;;;;6259684;28;20299;-70
2023/09/27 13:13:38;;;;;;;12.45;7.22;;;;;;;;;;6261464;28;20304;-71
2023/09/27 13:16:44;;;;;;;8.48;6.88;;;;;;;;;;6262042;28;20677;-72
2023/09/27 13:19:47;;;;;;;19.90;6.85;;;;;;;;;;6261835;28;20283;-70
2023/09/27 13:22:51;;;;;;;10.77;7.20;;;;;;;;;;6261891;28;20485;-71
2023/09/27 13:25:56;;;;;;;7.82;6.97;;;;;;;;;;6261669;28;20303;-71
2023/09/27 13:29:00;;;;;;;8.15;6.82;;;;;;;;;;6261206;28;20556;-70
2023/09/27 13:32:05;;;;;;;9.25;6.70;;;;;;;;;;6260746;28;20663;-71
2023/09/27 13:35:09;;;;;;;9.18;6.80;;;;;;;;;;6259405;28;20303;-71
2023/09/27 13:38:13;;;;;;;8.85;7.78;;;;;;;;;;6259394;28;20291;-70
2023/09/27 13:41:17;;;;;;;12.80;7.30;;;;;;;;;;6257844;28;20592;-69
2023/09/27 13:44:21;;;;;;;8.00;6.10;;;;;;;;;;6259169;28;20287;-71
2023/09/27 13:47:27;;;;;;;7.57;6.72;;;;;;;;;;6259541;28;20291;-70
2023/09/27 13:50:33;;;;;;;6.97;6.07;;;;;;;;;;6259145;28;20303;-72
2023/09/27 13:53:37;;;;;;;6.28;5.93;;;;;;;;;;6259041;28;20288;-70
2023/09/27 13:56:41;;;;;;;6.90;6.03;;;;;;;;;;6259128;28;20451;-72
2023/09/27 13:59:45;;;;;;;7.20;6.10;;;;;;;;;;6258594;28;20308;-71
2023/09/27 14:02:51;;;;;;;6.60;6.05;;;;;;;;;;6258447;28;20311;-70
2023/09/27 14:05:54;;;;;;;6.53;5.70;;;;;;;;;;6259182;28;20292;-71
2023/09/27 14:08:58;;;;;;;5.95;5.53;;;;;;;;;;6258808;28;20296;-70
2023/09/27 14:12:03;;;;;;;12.82;5.82;;;;;;;;;;6258994;28;20311;-71
2023/09/27 14:15:08;;;;;;;6.30;5.75;;;;;;;;;;6258664;28;20291;-70
2023/09/27 14:18:16;;;;;;;7.00;5.47;;;;;;;;;;6258595;28;20316;-71
2023/09/27 14:21:20;;;;;;;6.60;5.97;;;;;;;;;;6258854;28;20447;-70
2023/09/27 14:24:24;;;;;;;6.65;5.57;;;;;;;;;;6258887;28;20303;-71
2023/09/27 14:27:28;;;;;;;6.53;6.03;;;;;;;;;;6259326;28;20309;-70
2023/09/27 14:30:32;;;;;;;7.10;6.00;;;;;;;;;;6258717;28;20295;-71
2023/09/27 14:33:37;;;;;;;6.80;5.78;;;;;;;;;;6207155;28;1233169;-69
2023/09/27 14:36:41;;;;;;;7.28;6.13;;;;;;;;;;6260451;28;20244;-70
2023/09/27 14:39:44;;;;;;;8.82;6.13;;;;;;;;;;6257521;28;20447;-72
2023/09/27 14:42:48;;;;;;;7.20;5.80;;;;;;;;;;6260188;28;20252;-70
2023/09/27 14:45:52;;;;;;;8.40;6.20;;;;;;;;;;6259611;28;20260;-70
2023/09/27 14:48:58;;;;;;;7.22;6.53;;;;;;;;;;6259460;28;20291;-70
2023/09/27 14:52:01;;;;;;;7.03;6.47;;;;;;;;;;6259378;28;20580;-70
2023/09/27 14:55:07;;;;;;;6.47;6.00;;;;;;;;;;6259268;28;20299;-72
2023/09/27 14:58:12;;;;;;;6.43;5.82;;;;;;;;;;6259396;28;20592;-70
2023/09/27 15:01:17;;;;;;;9.13;6.18;;;;;;;;;;6259584;28;20305;-73
2023/09/27 15:04:23;;;;;;;7.95;7.07;;;;;;;;;;6258937;28;20295;-70
2023/09/27 15:07:27;;;;;;;8.05;6.30;;;;;;;;;;6274148;28;20646;-72
2023/09/27 15:10:31;;;;;;;6.93;6.50;;;;;;;;;;6258722;28;20314;-71
2023/09/27 15:13:35;;;;;;;7.10;6.50;;;;;;;;;;6258941;28;20292;-72
2023/09/27 15:16:39;;;;;;;6.60;6.03;;;;;;;;;;6259033;28;20299;-70
2023/09/27 15:19:45;;;;;;;6.97;6.30;;;;;;;;;;6258566;28;20563;-70
2023/09/27 15:22:50;;;;;;;6.45;6.00;;;;;;;;;;6258523;28;20554;-71
2023/09/27 15:25:54;;;;;;;7.95;6.15;;;;;;;;;;6260023;28;20567;-71
2023/09/27 15:28:59;;;;;;;6.95;6.35;;;;;;;;;;6259553;28;20560;-70
2023/09/27 15:32:04;;;;;;;9.73;6.65;;;;;;;;;;6258005;28;20311;-71
2023/09/27 15:35:09;;;;;;;7.03;6.45;;;;;;;;;;6258248;28;20283;-71
2023/09/27 15:38:13;;;;;;;7.88;6.65;;;;;;;;;;6258191;28;20292;-72
2023/09/27 15:41:17;;;;;;;7.13;6.63;;;;;;;;;;6256245;28;20312;-70
2023/09/27 15:44:21;;;;;;;6.47;5.85;;;;;;;;;;6257693;28;20295;-70
2023/09/27 15:47:25;;;;;;;7.18;6.38;;;;;;;;;;6258167;28;20300;-73
2023/09/27 15:50:30;;;;;;;6.57;5.93;;;;;;;;;;6257527;28;20580;-72
2023/09/27 15:53:34;;;;;;;7.05;6.53;;;;;;;;;;6257722;28;20291;-73
2023/09/27 15:56:38;;;;;;;7.30;6.57;;;;;;;;;;6258025;28;20287;-71
2023/09/27 15:59:42;;;;;;;8.23;6.90;;;;;;;;;;6257564;28;20303;-69
2023/09/27 16:02:46;;;;;;;7.53;6.75;;;;;;;;;;6257417;28;20545;-72
2023/09/27 16:05:52;;;;;;;10.07;6.85;;;;;;;;;;6257924;28;20619;-70
2023/09/27 16:08:56;;;;;;;12.55;6.97;;;;;;;;;;6257879;28;20296;-71
2023/09/27 16:12:01;;;;;;;11.60;6.63;;;;;;;;;;6215804;28;20301;-70
2023/09/27 16:15:07;;;;;;;7.85;7.07;;;;;;;;;;6209333;28;20301;-72
2023/09/27 16:18:11;;;;;;;8.82;7.10;;;;;;;;;;6225562;28;20320;-71
2023/09/27 16:21:18;;;;;;;9.82;7.40;;;;;;;;;;6230352;28;20296;-71
2023/09/27 16:24:22;;;;;;;9.88;7.18;;;;;;;;;;6232525;28;20303;-71
2023/09/27 16:27:26;;;;;;;7.72;7.00;;;;;;;;;;6232953;28;20518;-73
2023/09/27 16:30:31;;;;;;;10.30;6.88;;;;;;;;;;6232506;28;20304;-70
2023/09/27 16:33:36;;;;;;;7.70;7.13;;;;;;;;;;6231366;28;20480;-72
2023/09/27 16:36:41;;;;;;;10.65;6.85;;;;;;;;;;6232661;28;20499;-71
2023/09/27 16:39:49;;;;;;;10.93;6.55;;;;;;;;;;6236356;28;20533;-71
2023/09/27 16:42:53;;;;;;;7.68;6.97;;;;;;;;;;6256470;28;20295;-72
2023/09/27 16:45:57;;;;;;;7.30;6.70;;;;;;;;;;6256822;28;20564;-72
2023/09/27 16:49:00;;;;;;;8.82;7.00;;;;;;;;;;6256759;28;20295;-71
2023/09/27 16:52:06;;;;;;;6.95;6.35;;;;;;;;;;6256794;28;20287;-71
2023/09/27 16:55:10;;;;;;;12.80;7.05;;;;;;;;;;6256799;28;20299;-73
2023/09/27 16:58:14;;;;;;;7.78;7.05;;;;;;;;;;6256539;28;20275;-72
2023/09/27 17:01:18;;;;;;;7.70;6.93;;;;;;;;;;6256964;28;20304;-72
2023/09/27 17:04:22;;;;;;;12.68;6.90;;;;;;;;;;6256420;28;20303;-71
2023/09/27 17:07:32;;;;;;;22.38;8.50;;;;;;;;;;6257307;28;20299;-73
2023/09/27 17:10:36;;;;;;;15.18;7.72;;;;;;;;;;6256389;28;20299;-74
2023/09/27 17:13:40;;;;;;;9.23;7.47;;;;;;;;;;6256691;28;20567;-70
2023/09/27 17:16:44;;;;;;;11.02;7.40;;;;;;;;;;6256834;28;20300;-71
2023/09/27 17:19:48;;;;;;;7.63;6.93;;;;;;;;;;6256175;28;20303;-70
2023/09/27 17:22:54;;;;;;;13.88;7.80;;;;;;;;;;6256255;28;20296;-70
2023/09/27 17:25:58;;;;;;;9.25;7.05;;;;;;;;;;6256893;28;20307;-73
2023/09/27 17:29:01;;;;;;;15.13;7.57;;;;;;;;;;6256521;28;20304;-72
2023/09/27 17:32:05;;;;;;;7.90;7.03;;;;;;;;;;6256988;28;20308;-73
2023/09/27 17:35:10;;;;;;;7.18;6.63;;;;;;;;;;6256548;28;20327;-71
2023/09/27 17:38:15;;;;;;;8.98;7.88;;;;;;;;;;6256419;28;20304;-71
2023/09/27 17:41:20;;;;;;;10.27;7.65;;;;;;;;;;6254561;28;20311;-71
2023/09/27 17:44:24;;;;;;;8.23;7.43;;;;;;;;;;6256176;28;20319;-71
2023/09/27 17:47:27;;;;;;;7.82;7.18;;;;;;;;;;6256537;28;20463;-72
2023/09/27 17:50:32;;;;;;;8.90;7.53;;;;;;;;;;6256077;28;20287;-72
2023/09/27 17:53:37;;;;;;;12.90;7.55;;;;;;;;;;6255995;28;20411;-70
2023/09/27 17:56:41;;;;;;;7.88;7.20;;;;;;;;;;6259553;28;20367;-71
2023/09/27 17:59:45;;;;;;;7.45;6.85;;;;;;;;;;6260228;28;20312;-72
2023/09/27 18:02:49;;;;;;;9.52;7.53;;;;;;;;;;6260033;28;20323;-71
2023/09/27 18:05:53;;;;;;;8.55;7.47;;;;;;;;;;6260535;28;20307;-70
2023/09/27 18:08:59;;;;;;;7.63;6.95;;;;;;;;;;6260058;28;20335;-71
2023/09/27 18:12:03;;;;;;;15.05;7.93;;;;;;;;;;6260415;28;20284;-72